createdAt,value
2022-07-25T00:05:27.064Z,19.19
2022-07-25T00:13:00.950Z,19.12
2022-07-25T00:20:37.349Z,19.05
2022-07-25T00:28:11.103Z,18.97
2022-07-25T00:35:46.222Z,18.94
2022-07-25T00:43:19.782Z,18.88
2022-07-25T00:50:56.767Z,18.79
2022-07-25T00:58:31.575Z,18.71
2022-07-25T01:06:07.545Z,18.63
2022-07-25T01:13:41.439Z,18.56
2022-07-25T01:21:16.694Z,18.52
2022-07-25T01:28:50.450Z,18.50
2022-07-25T01:36:25.659Z,18.56
2022-07-25T01:43:59.515Z,18.59
2022-07-25T01:51:34.744Z,18.57
2022-07-25T01:59:08.476Z,18.59
2022-07-25T02:06:43.801Z,18.60
2022-07-25T02:14:17.587Z,18.57
2022-07-25T02:21:52.713Z,18.49
2022-07-25T02:29:26.302Z,18.50
2022-07-25T02:37:01.432Z,18.47
2022-07-25T02:44:35.055Z,18.40
2022-07-25T02:52:12.080Z,18.39
2022-07-25T02:59:45.981Z,18.36
2022-07-25T03:07:21.092Z,18.33
2022-07-25T03:14:54.624Z,18.22
2022-07-25T03:22:29.830Z,18.19
2022-07-25T03:30:03.818Z,18.16
2022-07-25T03:37:39.038Z,18.15
2022-07-25T03:45:12.890Z,18.10
2022-07-25T03:52:48.031Z,18.04
2022-07-25T04:00:22.015Z,18.06
2022-07-25T04:07:57.200Z,18.06
2022-07-25T04:15:30.787Z,18.03
2022-07-25T04:23:06.146Z,18.03
2022-07-25T04:30:39.761Z,18.10
2022-07-25T04:38:15.002Z,18.18
2022-07-25T04:45:49.075Z,18.27
2022-07-25T04:53:24.304Z,18.40
2022-07-25T05:00:58.670Z,18.55
2022-07-25T05:08:33.841Z,18.74
2022-07-25T05:16:09.067Z,18.98
2022-07-25T05:23:44.199Z,19.26
2022-07-25T05:31:17.828Z,19.48
2022-07-25T05:38:54.282Z,19.82
2022-07-25T05:46:28.093Z,20.14
2022-07-25T05:54:03.426Z,20.47
2022-07-25T06:01:37.410Z,20.80
2022-07-25T06:09:12.524Z,21.31
2022-07-25T06:16:46.094Z,21.59
2022-07-25T06:24:21.227Z,22.08
2022-07-25T06:31:54.897Z,22.35
2022-07-25T06:39:30.501Z,22.57
2022-07-25T06:47:05.717Z,22.98
2022-07-25T06:54:40.899Z,23.53
2022-07-25T07:02:14.824Z,23.59
2022-07-25T07:09:49.915Z,23.98
2022-07-25T07:17:23.649Z,24.25
2022-07-25T07:24:58.765Z,24.70
2022-07-25T07:32:33.215Z,24.94
2022-07-25T07:40:17.131Z,25.18
2022-07-25T07:47:53.625Z,25.84
2022-07-25T07:55:48.810Z,26.01
2022-07-25T08:03:22.986Z,26.48
2022-07-25T08:10:59.047Z,26.72
2022-07-25T08:18:34.181Z,27.32
2022-07-25T08:26:09.326Z,28.01
2022-07-25T08:33:43.446Z,28.32
2022-07-25T08:41:18.605Z,29.10
2022-07-25T08:48:59.298Z,29.40
2022-07-25T08:56:34.777Z,30.06
2022-07-25T09:04:10.443Z,30.21
2022-07-25T09:11:45.929Z,30.87
2022-07-25T09:19:22.225Z,31.40
2022-07-25T09:27:00.129Z,31.70
2022-07-25T09:34:36.788Z,31.74
2022-07-25T09:42:21.778Z,31.93
2022-07-25T09:49:55.570Z,32.51
2022-07-25T09:57:30.656Z,32.72
2022-07-25T10:05:13.678Z,32.92
2022-07-25T10:13:09.965Z,32.73
2022-07-25T10:20:45.080Z,32.98
2022-07-25T10:28:21.216Z,32.98
2022-07-25T10:35:55.263Z,32.93
2022-07-25T10:43:30.614Z,33.25
2022-07-25T10:51:08.360Z,33.21
2022-07-25T10:58:50.904Z,33.45
2022-07-25T11:06:32.774Z,33.55
2022-07-25T11:14:16.342Z,33.49
2022-07-25T11:21:52.112Z,33.28
2022-07-25T11:29:28.000Z,33.25
2022-07-25T11:37:04.054Z,33.50
2022-07-25T11:44:47.250Z,33.43
2022-07-25T11:52:23.037Z,33.40
2022-07-25T12:00:00.179Z,33.45
2022-07-25T12:07:44.512Z,33.69
2022-07-25T12:15:21.538Z,33.75
2022-07-25T12:22:57.966Z,33.80
2022-07-25T12:30:35.118Z,33.88
2022-07-25T12:38:09.250Z,34.04
2022-07-25T12:45:44.642Z,33.83
2022-07-25T12:53:18.630Z,33.95
2022-07-25T13:00:58.106Z,33.99
2022-07-25T13:08:37.723Z,34.00
2022-07-25T13:16:13.349Z,33.98
2022-07-25T13:23:47.098Z,33.98
2022-07-25T13:31:22.751Z,33.87
2022-07-25T13:38:57.909Z,33.77
2022-07-25T13:46:33.746Z,33.93
2022-07-25T13:54:07.586Z,34.27
2022-07-25T14:01:44.392Z,34.43
2022-07-25T14:09:18.789Z,34.47
2022-07-25T14:16:55.074Z,34.77
2022-07-25T14:24:28.834Z,34.69
2022-07-25T14:32:04.633Z,34.85
2022-07-25T14:39:38.421Z,34.61
2022-07-25T14:47:15.218Z,34.33
2022-07-25T14:54:49.022Z,34.01
2022-07-25T15:02:24.182Z,33.78
2022-07-25T15:09:57.930Z,33.63
2022-07-25T15:17:34.087Z,33.62
2022-07-25T15:33:03.930Z,33.76
2022-07-25T15:40:37.694Z,33.82
2022-07-25T15:48:15.109Z,34.02
2022-07-25T15:55:48.928Z,34.06
2022-07-25T16:03:24.290Z,34.31
2022-07-25T16:10:58.689Z,34.20
2022-07-25T16:18:33.930Z,33.94
2022-07-25T16:26:08.567Z,33.72
2022-07-25T16:33:43.885Z,33.46
2022-07-25T16:41:17.807Z,33.33
2022-07-25T16:48:53.192Z,32.76
2022-07-25T16:56:27.139Z,32.23
2022-07-25T17:04:02.285Z,31.42
2022-07-25T17:11:36.136Z,31.15
2022-07-25T17:19:11.851Z,30.83
2022-07-25T17:26:45.696Z,30.28
2022-07-25T17:34:22.704Z,29.45
2022-07-25T17:41:57.314Z,29.20
2022-07-25T17:49:32.474Z,28.93
2022-07-25T17:57:07.391Z,28.27
2022-07-25T18:04:42.746Z,28.01
2022-07-25T18:12:16.548Z,27.85
2022-07-25T18:19:51.742Z,27.34
2022-07-25T18:27:25.592Z,27.16
2022-07-25T18:35:01.096Z,26.86
2022-07-25T18:42:35.228Z,26.68
2022-07-25T18:50:11.084Z,26.47
2022-07-25T18:57:45.018Z,25.93
2022-07-25T19:05:20.435Z,25.87
2022-07-25T19:12:54.317Z,25.89
2022-07-25T19:20:29.656Z,25.54
2022-07-25T19:28:05.078Z,25.57
2022-07-25T19:35:40.534Z,25.56
2022-07-25T19:43:14.422Z,25.53
2022-07-25T19:50:50.855Z,25.11
2022-07-25T19:58:24.753Z,25.04
2022-07-25T20:06:03.409Z,24.94
2022-07-25T20:13:40.559Z,24.90
2022-07-25T20:21:18.042Z,24.74
2022-07-25T20:28:52.189Z,24.63
2022-07-25T20:36:27.391Z,24.47
2022-07-25T20:44:01.112Z,24.20
2022-07-25T20:51:37.405Z,23.95
2022-07-25T20:59:11.768Z,23.83
2022-07-25T21:06:47.047Z,23.65
2022-07-25T21:14:22.111Z,23.52
2022-07-25T21:21:57.310Z,23.53
2022-07-25T21:29:31.132Z,23.46
2022-07-25T21:37:06.294Z,23.35
2022-07-25T21:44:40.889Z,23.24
2022-07-25T21:52:16.608Z,22.92
2022-07-25T21:59:50.412Z,22.71
2022-07-25T22:07:25.681Z,22.42
2022-07-25T22:14:59.628Z,22.22
2022-07-25T22:22:34.840Z,22.18
2022-07-25T22:30:13.469Z,22.05
2022-07-25T22:37:53.289Z,21.75
2022-07-25T22:45:27.360Z,21.61
2022-07-25T22:53:02.768Z,21.49
2022-07-25T23:00:36.797Z,21.53
2022-07-25T23:08:11.935Z,21.52
2022-07-25T23:15:50.289Z,21.45
2022-07-25T23:23:26.843Z,21.39
2022-07-25T23:31:00.583Z,21.40
2022-07-25T23:38:37.159Z,21.40
2022-07-25T23:46:11.022Z,21.36
2022-07-25T23:53:47.284Z,21.39
